Pendaries, New Mexico
Current Conditions -  °F | °C
As of 8:53 PM on Wednesday 22 Oct 2014 (Local Time) from KLVS Reporting Station
Clear Clear  
Wind Chill: 51°   Ceiling: Unl
Heat Index: 51°   Visibility: 10mi
Dew Point: 32°   Wind: 3mph
Humidity: 48%   Direction: 270°W
Pressure: 30.22"   Gusts: NA
Location:  35.8214°N, 105.333°W
Report Text: KLVS 230253Z AUTO 27003KT 10SM CLR 11/00 A3022 RMK AO2 SLP169 T01060000 51014
Loading
Personal Weather Stations






























Interactive Weather Map New forecast layout! Learn more

10-Day Weather Forecast

Advertisements
Track Severe Weather on mobile